createdAt,value
2019-03-13T00:03:07.046Z,0.50
2019-03-13T00:08:08.758Z,1.00
2019-03-13T00:13:10.517Z,0.70
2019-03-13T00:18:12.235Z,0.60
2019-03-13T00:23:13.830Z,0.70
2019-03-13T00:28:15.556Z,0.60
2019-03-13T00:33:17.226Z,0.67
2019-03-13T00:38:18.934Z,0.67
2019-03-13T00:43:20.559Z,0.80
2019-03-13T00:48:22.338Z,0.60
2019-03-13T00:53:24.037Z,0.83
2019-03-13T00:58:25.733Z,0.60
2019-03-13T01:03:38.133Z,0.60
2019-03-13T01:08:39.735Z,0.80
2019-03-13T01:13:41.449Z,0.80
2019-03-13T01:18:43.230Z,0.70
2019-03-13T01:23:44.822Z,0.67
2019-03-13T01:28:46.557Z,0.60
2019-03-13T01:33:48.572Z,0.70
2019-03-13T01:38:50.215Z,0.63
2019-03-13T01:43:51.844Z,0.73
2019-03-13T01:48:53.551Z,0.60
2019-03-13T01:53:55.190Z,0.87
2019-03-13T01:58:56.848Z,0.80
2019-03-13T02:03:58.545Z,0.93
2019-03-13T02:09:00.288Z,0.70
2019-03-13T02:14:01.892Z,0.63
2019-03-13T02:19:03.605Z,0.70
2019-03-13T02:24:05.416Z,0.70
2019-03-13T02:29:07.129Z,0.87
2019-03-13T02:34:08.726Z,1.33
2019-03-13T02:39:10.444Z,0.60
2019-03-13T02:44:12.189Z,1.10
2019-03-13T02:49:13.820Z,0.80
2019-03-13T02:54:15.705Z,0.80
2019-03-13T02:59:17.456Z,0.90
2019-03-13T03:04:19.096Z,1.30
2019-03-13T03:09:20.737Z,1.37
2019-03-13T03:14:22.531Z,1.27
2019-03-13T03:19:24.171Z,0.93
2019-03-13T03:24:25.735Z,0.63
2019-03-13T03:29:27.446Z,0.23
2019-03-13T03:34:29.046Z,0.20
2019-03-13T03:39:30.601Z,0.20
2019-03-13T03:44:32.334Z,0.30
2019-03-13T03:49:33.896Z,0.30
2019-03-13T03:54:35.455Z,0.30
2019-03-13T03:59:37.111Z,0.40
2019-03-13T04:04:38.699Z,0.77
2019-03-13T04:09:40.249Z,0.97
2019-03-13T04:14:41.926Z,0.70
2019-03-13T04:19:43.635Z,0.80
2019-03-13T04:24:45.310Z,1.03
2019-03-13T04:29:46.885Z,1.03
2019-03-13T04:34:48.496Z,0.70
2019-03-13T04:39:50.085Z,0.90
2019-03-13T04:44:51.704Z,1.03
2019-03-13T04:49:53.321Z,1.10
2019-03-13T04:54:54.955Z,1.40
2019-03-13T04:59:56.621Z,1.70
2019-03-13T05:04:58.222Z,1.40
2019-03-13T05:09:59.852Z,1.50
2019-03-13T05:15:01.467Z,1.40
2019-03-13T05:20:03.672Z,1.90
2019-03-13T05:25:05.510Z,2.03
2019-03-13T05:30:07.181Z,1.60
2019-03-13T05:35:08.937Z,1.40
2019-03-13T05:40:10.617Z,1.30
2019-03-13T05:45:12.376Z,1.30
2019-03-13T05:50:14.050Z,1.47
2019-03-13T05:55:15.740Z,1.70
2019-03-13T06:00:19.433Z,1.37
2019-03-13T06:05:21.005Z,1.53
2019-03-13T06:10:22.576Z,1.57
2019-03-13T06:15:24.158Z,1.50
2019-03-13T06:20:25.846Z,1.40
2019-03-13T06:25:27.445Z,1.30
2019-03-13T06:30:29.005Z,1.00
2019-03-13T06:35:30.558Z,1.30
2019-03-13T06:40:32.152Z,1.33
2019-03-13T06:45:33.696Z,1.30
2019-03-13T06:50:35.254Z,1.10
2019-03-13T06:55:36.800Z,1.00
2019-03-13T07:01:03.863Z,0.80
2019-03-13T07:06:30.982Z,0.67
2019-03-13T07:11:41.977Z,0.60
2019-03-13T07:17:01.843Z,0.77
2019-03-13T07:22:22.195Z,0.80
2019-03-13T07:27:49.687Z,0.63
2019-03-13T07:32:58.392Z,0.70
2019-03-13T07:38:15.541Z,0.50
2019-03-13T07:43:35.976Z,0.60
2019-03-13T07:49:00.173Z,0.60
2019-03-13T07:54:12.544Z,0.73
2019-03-13T07:59:48.570Z,0.57
2019-03-13T08:05:21.695Z,0.43
2019-03-13T08:10:29.538Z,0.60
2019-03-13T08:15:38.587Z,0.60
2019-03-13T08:21:00.064Z,0.60
2019-03-13T08:26:06.919Z,0.30
2019-03-13T08:31:17.318Z,0.37
2019-03-13T08:36:40.796Z,0.60
2019-03-13T08:42:14.461Z,0.70
2019-03-13T08:47:25.127Z,0.60
2019-03-13T08:52:48.599Z,0.40
2019-03-13T08:58:15.661Z,0.50
2019-03-13T09:03:30.353Z,1.10
2019-03-13T09:08:50.534Z,0.70
2019-03-13T09:14:10.694Z,0.70
2019-03-13T09:19:21.289Z,0.40
2019-03-13T09:24:45.352Z,0.60
2019-03-13T09:30:12.678Z,0.60
2019-03-13T09:35:24.715Z,0.47
2019-03-13T09:40:35.078Z,0.80
2019-03-13T09:45:53.032Z,0.60
2019-03-13T09:51:32.434Z,0.60
2019-03-13T09:56:59.249Z,0.80
2019-03-13T10:02:19.060Z,0.53
2019-03-13T10:07:52.164Z,0.60
2019-03-13T10:13:12.175Z,0.97
2019-03-13T10:18:19.494Z,0.80
2019-03-13T10:23:28.234Z,0.70
2019-03-13T10:28:35.935Z,1.03
2019-03-13T10:33:59.750Z,0.80
2019-03-13T10:39:09.383Z,0.70
2019-03-13T10:44:36.381Z,1.00
2019-03-13T10:49:43.362Z,1.00
2019-03-13T10:54:52.113Z,0.73
2019-03-13T11:00:22.204Z,0.50
2019-03-13T11:05:44.097Z,0.50
2019-03-13T11:10:59.472Z,0.60
2019-03-13T11:16:19.507Z,0.60
2019-03-13T11:21:46.540Z,0.60
2019-03-13T11:27:13.837Z,0.60
2019-03-13T11:32:44.409Z,0.77
2019-03-13T11:37:58.415Z,0.70
2019-03-13T11:43:18.644Z,1.25
2019-03-13T11:48:31.565Z,1.00
2019-03-13T11:53:51.429Z,0.65
2019-03-13T11:59:22.007Z,0.60
2019-03-13T12:04:46.228Z,0.40
2019-03-13T12:10:13.311Z,0.57
2019-03-13T12:15:35.845Z,0.83
2019-03-13T12:20:42.566Z,1.10
2019-03-13T12:25:56.831Z,0.90
2019-03-13T12:31:14.062Z,1.23
2019-03-13T12:36:42.752Z,0.60
2019-03-13T12:41:59.164Z,0.73
2019-03-13T12:47:35.545Z,0.90
2019-03-13T12:52:59.816Z,1.00
2019-03-13T12:58:16.494Z,0.53
2019-03-13T13:03:36.365Z,0.77
2019-03-13T13:08:49.418Z,0.60
2019-03-13T13:14:02.264Z,0.70
2019-03-13T13:19:03.956Z,0.70
2019-03-13T13:24:05.549Z,0.70
2019-03-13T13:29:07.220Z,0.60
2019-03-13T13:34:08.788Z,0.77
2019-03-13T13:39:10.632Z,0.73
2019-03-13T13:44:12.247Z,0.87
2019-03-13T13:49:13.790Z,0.50
2019-03-13T13:54:17.276Z,0.50
2019-03-13T13:59:18.904Z,1.07
2019-03-13T14:04:20.473Z,0.90
2019-03-13T14:09:22.056Z,0.80
2019-03-13T14:14:23.698Z,0.63
2019-03-13T14:19:25.289Z,0.80
2019-03-13T14:24:27.028Z,0.60
2019-03-13T14:29:28.759Z,0.63
2019-03-13T14:34:30.349Z,0.67
2019-03-13T14:39:31.936Z,0.60
2019-03-13T14:44:33.514Z,0.70
2019-03-13T14:49:35.074Z,0.90
2019-03-13T14:54:36.633Z,0.70
2019-03-13T14:59:38.376Z,0.67
2019-03-13T15:04:39.989Z,0.40
2019-03-13T15:09:41.662Z,0.60
2019-03-13T15:14:43.252Z,0.40
2019-03-13T15:19:44.822Z,0.60
2019-03-13T15:24:46.388Z,0.53
2019-03-13T15:29:48.092Z,0.63
2019-03-13T15:34:49.679Z,0.60
2019-03-13T15:39:51.407Z,0.80
2019-03-13T15:44:53.146Z,0.80
2019-03-13T15:49:54.811Z,0.70
2019-03-13T15:54:56.389Z,0.40
2019-03-13T15:59:57.993Z,0.93
2019-03-13T16:04:59.631Z,0.60
2019-03-13T16:10:03.003Z,0.60
2019-03-13T16:15:06.241Z,0.43
2019-03-13T16:20:08.838Z,0.60
2019-03-13T16:25:10.534Z,0.60
2019-03-13T16:30:14.530Z,1.00
2019-03-13T16:35:16.693Z,0.90
2019-03-13T16:40:18.310Z,0.80
2019-03-13T16:45:20.214Z,0.83
2019-03-13T16:50:21.816Z,1.10
2019-03-13T16:55:23.442Z,0.40
2019-03-13T17:00:25.340Z,0.70
2019-03-13T17:05:27.141Z,1.10
2019-03-13T17:10:29.097Z,0.97
2019-03-13T17:15:30.654Z,2.23
2019-03-13T17:20:32.393Z,0.80
2019-03-13T17:25:34.070Z,0.73
2019-03-13T17:30:35.675Z,0.60
2019-03-13T17:35:37.430Z,1.13
2019-03-13T17:40:39.237Z,0.70
2019-03-13T17:45:40.947Z,1.00
2019-03-13T17:50:42.598Z,0.63
2019-03-13T17:55:44.160Z,0.90
2019-03-13T18:00:48.077Z,1.13
2019-03-13T18:05:49.913Z,1.37
2019-03-13T18:10:51.627Z,0.80
2019-03-13T18:15:53.365Z,0.53
2019-03-13T18:20:54.955Z,0.50
2019-03-13T18:25:56.658Z,0.83
2019-03-13T18:30:58.242Z,1.00
2019-03-13T18:35:59.842Z,0.70
2019-03-13T18:41:01.446Z,0.80
2019-03-13T18:46:03.126Z,0.67
2019-03-13T18:51:05.287Z,0.67
2019-03-13T18:56:07.032Z,0.80
2019-03-13T19:01:08.663Z,0.80
2019-03-13T19:06:10.277Z,0.70
2019-03-13T19:11:11.842Z,0.80
2019-03-13T19:16:13.563Z,0.90
2019-03-13T19:21:15.131Z,1.17
2019-03-13T19:26:16.680Z,1.90
2019-03-13T19:31:18.276Z,0.70
2019-03-13T19:36:20.214Z,0.80
2019-03-13T19:41:21.911Z,0.50
2019-03-13T19:46:24.430Z,0.63
2019-03-13T19:51:26.002Z,0.60
2019-03-13T19:56:27.581Z,0.50
2019-03-13T20:01:29.163Z,1.00
2019-03-13T20:06:41.679Z,1.00
2019-03-13T20:11:34.247Z,0.70
2019-03-13T20:16:35.809Z,1.10
2019-03-13T20:21:37.366Z,1.03
2019-03-13T20:26:39.081Z,0.83
2019-03-13T20:31:40.656Z,0.70
2019-03-13T20:36:42.317Z,0.50
2019-03-13T20:41:43.996Z,0.60
2019-03-13T20:46:45.609Z,0.63
2019-03-13T20:51:47.187Z,0.77
2019-03-13T20:56:48.742Z,0.67
2019-03-13T21:01:50.479Z,0.93
2019-03-13T21:06:52.191Z,0.77
2019-03-13T21:11:53.790Z,0.77
2019-03-13T21:16:55.361Z,0.50
2019-03-13T21:21:56.962Z,0.60
2019-03-13T21:26:58.709Z,0.50
2019-03-13T21:32:00.404Z,0.70
2019-03-13T21:37:01.988Z,0.80
2019-03-13T21:42:03.738Z,0.60
2019-03-13T21:47:05.416Z,1.00
2019-03-13T21:52:07.096Z,0.90
2019-03-13T21:57:08.694Z,0.80
2019-03-13T22:02:10.277Z,0.90
2019-03-13T22:07:11.896Z,1.00
2019-03-13T22:12:13.466Z,0.80
2019-03-13T22:17:15.031Z,0.80
2019-03-13T22:22:16.617Z,0.63
2019-03-13T22:27:18.259Z,0.70
2019-03-13T22:32:19.855Z,0.90
2019-03-13T22:37:21.559Z,0.70
2019-03-13T22:42:23.217Z,0.70
2019-03-13T22:47:24.778Z,0.80
2019-03-13T22:52:26.340Z,0.70
2019-03-13T22:57:28.057Z,0.50
2019-03-13T23:02:29.787Z,0.83
2019-03-13T23:07:32.445Z,0.90
2019-03-13T23:12:34.047Z,0.60
2019-03-13T23:17:35.664Z,0.70
2019-03-13T23:22:37.399Z,1.03
2019-03-13T23:27:39.413Z,0.70
2019-03-13T23:32:41.173Z,0.63
2019-03-13T23:37:42.840Z,0.70
2019-03-13T23:42:44.552Z,0.73
2019-03-13T23:47:46.321Z,0.80
2019-03-13T23:52:47.887Z,1.00
2019-03-13T23:57:49.590Z,1.10
